MMPQ

Palenque International Airport

Mexico
TAF MMPQ 250513Z 2506/2606 12005KT 6SM HZ SCT030 BKN150 TEMPO 2511/2515 2SM BR BKN010 FM251800 13010KT 6SM HZ BKN030 BKN200 TEMPO 2522/2602 4SM TSRA BKN020CB
Issued Valid From Valid To
Sep-25 @ 05:13 UTC
(10 hours ago)
Sep-25 @ 06:00 UTC
(9 hours ago)
Sep-26 @ 06:00 UTC
(in 15 hours)
Sep-25 @ 06:00 to Sep-25 @ 18:00
TAF MMPQ 250513Z 2506/2606 12005KT 6SM HZ SCT030 BKN150
Wind Visibility Clouds Conditions
120° at 5 knots 6 miles
  • Scattered at 3,000' AGL
  • Broken at 15,000' AGL
  • Haze
Expired Click to View Sep-25 @ 11:00 to Sep-25 @ 15:00
TEMPO 2511/2515 2SM BR BKN010
Visibility Clouds Conditions
2 miles
  • Broken at 1,000' AGL
  • Mist
From Sep-25 @ 18:00 to Sep-26 @ 06:00
FM251800 13010KT 6SM HZ BKN030 BKN200
Wind Visibility Clouds Conditions
130° at 10 knots 6 miles
  • Broken at 3,000' AGL
  • Broken at 20,000' AGL
  • Haze
Temporary Sep-25 @ 22:00 to Sep-26 @ 02:00
TEMPO 2522/2602 4SM TSRA BKN020CB
Visibility Clouds Conditions
4 miles
  • Broken at 2,000' AGL
  • Thunderstorm
  • Rain
TAF MMPQ 250513Z 2506/2606 12005KT 6SM HZ SCT030 BKN150 TEMPO 2511/2515 2SM BR BKN010 FM251800 13010KT 6SM HZ BKN030 BKN200 TEMPO 2522/2602 4SM TSRA BKN020CB
Issued Sep-25 @ 05:13 UTC
(10 hours ago)
Valid From Sep-25 @ 06:00 UTC
(9 hours ago)
Valid To Sep-26 @ 06:00 UTC
(in 15 hours)
Sep-25 @ 06:00 - Sep-25 @ 18:00
Wind Visibility
120° at 5 knots 6 miles
Clouds
  • Scattered at 3,000' AGL
  • Broken at 15,000' AGL
Conditions
  • Haze
Sep-25 @ 11:00 - Sep-25 @ 15:00
Clouds
  • Broken at 1,000' AGL
Conditions
  • Mist
From Sep-25 @ 18:00 - Sep-26 @ 06:00
Wind Visibility
130° at 10 knots 6 miles
Clouds
  • Broken at 3,000' AGL
  • Broken at 20,000' AGL
Conditions
  • Haze
Temporary Sep-25 @ 22:00 - Sep-26 @ 02:00
Clouds
  • Broken at 2,000' AGL
Conditions
  • Thunderstorm
  • Rain